Accueil
METAR-TAF:

METAR-TAF

Aéroports :

Base aérienne de Florennes

Florennes, Belgique

latitude: 50-14N, longitude: 004-39E, altitude: 279 m

Observation

Le bulletin a été fait il y a 40 minutes, à 16:55 UTC
Vent 1 kt de direction variable
Température 7°C
Humidité 87%
Pression 1019 hPa
Visibilité 10 km ou plus

METAR: EBFS 261655Z AUTO VRB01KT 9999 SCT034/// BKN220/// 07/05 Q1019 BLU

Heure: 18:35 (17:35 UTC)

Prévision

Le bulletin a été fait il y a 5 heures et 54 minutes, à 11:41 UTC
Prévision valable du 26 à 13 UTC au 26 à 22 UTC
Vent 5 kt de sud
Visibilité 10 km ou plus
Quelques nuages à une hauteur de 3000 ft
Temporairement
du 26 à 13 UTC au 26 à 22 UTC
Vent 3 kt de direction variable
Temporairement
du 26 à 18 UTC au 26 à 22 UTC
Visibilité: 3000 m
brume

TAF: EBFS 261141Z 2613/2622 17005KT 9999 FEW030 TEMPO 2613/2622 VRB03KT TEMPO 2618/2622 3000 BR

Observations et prévisions météorologiques de plus de 4000 aéroports (messages METAR et TAF).

Les stations disponibles sont représentées par des disques jaunes et rouges sur la carte.

Passer la souris dessus pour voir le nom de la station.

Cliquer dessus pour voir les observations et prévisions météorologiques.

Pour changer de carte: cliquez sur les boutons verts avec une croix noire pour zoomer, sur le bouton vert avec un tiret pour effectuer un zoom arrière, ou sur les flèches vertes pour les cartes adjacentes.


METAR-TAF: